Time;durP1;ratioP1;P1;durP2;ratioP2;P2;SDS_P1;SDS_P2;PMS_P1;PMS_P2;Temp;Humidity;BMP_temperature;BMP_pressure;BME280_temperature;BME280_humidity;BME280_pressure;Samples;Min_cycle;Max_cycle;Signal;HPM_P1;HPM_P2
2023/06/02 00:01:37;;;;;;;9.60;7.50;;;17.50;99.90;;;17.82;69.15;94865.16;5079368;28;20539;-56
2023/06/02 00:04:05;;;;;;;12.37;6.63;;;17.50;99.90;;;17.84;69.22;94856.97;5072870;28;20501;-55
2023/06/02 00:06:33;;;;;;;8.27;6.70;;;17.50;99.90;;;17.85;69.17;94855.97;5073024;28;20447;-65
2023/06/02 00:09:03;;;;;;;10.30;7.00;;;17.50;99.90;;;17.86;69.30;94853.13;5072100;28;20475;-65
2023/06/02 00:11:34;;;;;;;11.67;7.20;;;17.60;99.90;;;17.86;69.15;94853.13;5074727;28;20442;-55
2023/06/02 00:14:04;;;;;;;9.87;7.30;;;17.50;99.90;;;17.84;69.11;94841.81;5073930;28;20481;-64
2023/06/02 00:16:33;;;;;;;11.13;7.87;;;17.60;99.90;;;17.86;69.06;94855.78;5078354;28;20479;-54
2023/06/02 00:19:01;;;;;;;12.20;7.70;;;17.50;99.90;;;17.86;69.14;94850.47;5071528;28;20467;-56
2023/06/02 00:21:28;;;;;;;18.67;6.80;;;17.60;99.90;;;17.86;68.90;94850.47;5073237;28;20454;-56
2023/06/02 00:23:56;;;;;;;11.60;6.93;;;17.50;99.90;;;17.88;69.46;94848.47;5076397;28;20498;-65
2023/06/02 00:26:23;;;;;;;16.37;6.87;;;17.60;99.90;;;17.89;69.61;94847.47;5072018;28;20442;-53
2023/06/02 00:28:51;;;;;;;13.50;6.90;;;17.60;99.90;;;17.88;69.08;94845.81;5073610;28;20987;-55
2023/06/02 00:31:20;;;;;;;6.90;6.07;;;17.60;99.90;;;17.89;69.81;94844.81;5071936;28;20566;-54
2023/06/02 00:33:47;;;;;;;9.70;6.73;;;17.60;99.90;;;17.89;69.09;94850.13;5076287;28;20925;-65
2023/06/02 00:36:15;;;;;;;13.53;7.30;;;17.60;99.90;;;17.91;69.57;94841.97;5072196;28;20481;-56
2023/06/02 00:38:42;;;;;;;9.97;6.40;;;17.60;99.90;;;17.90;69.07;94849.09;5069746;28;20471;-55
2023/06/02 00:41:10;;;;;;;15.80;7.70;;;17.60;99.90;;;17.91;68.76;94848.09;5071049;28;20450;-65
2023/06/02 00:43:37;;;;;;;11.50;6.57;;;17.60;99.90;;;17.88;69.10;94844.97;5071749;28;20483;-64
2023/06/02 00:46:04;;;;;;;11.07;7.00;;;17.60;99.90;;;17.87;68.66;94841.47;5071559;28;20457;-65
2023/06/02 00:48:33;;;;;;;17.37;7.10;;;17.60;99.90;;;17.87;68.69;94837.97;5071066;28;20910;-56
2023/06/02 00:51:00;;;;;;;10.90;7.57;;;17.60;99.90;;;17.85;68.59;94840.00;5071681;28;20454;-56
2023/06/02 00:53:27;;;;;;;9.27;8.07;;;17.50;99.90;;;17.82;68.67;94838.53;5068827;28;20459;-65
2023/06/02 00:55:55;;;;;;;8.87;6.27;;;17.50;99.90;;;17.81;68.49;94838.72;5074443;28;20462;-64
2023/06/02 00:58:23;;;;;;;11.67;7.23;;;17.50;99.90;;;17.81;68.64;94836.06;5064936;28;20455;-65
2023/06/02 01:00:52;;;;;;;9.60;6.80;;;17.50;99.90;;;17.79;68.43;94833.59;5068986;28;20549;-54
2023/06/02 01:03:21;;;;;;;7.87;6.53;;;17.40;99.90;;;17.80;68.60;94829.09;5073077;28;20462;-65
2023/06/02 01:05:50;;;;;;;14.50;7.73;;;17.50;99.90;;;17.80;68.87;94832.59;5065100;28;20895;-66
2023/06/02 01:08:18;;;;;;;10.53;6.47;;;17.40;99.90;;;17.79;68.97;94825.59;5069406;28;20458;-54
2023/06/02 01:10:45;;;;;;;9.93;6.87;;;17.50;99.90;;;17.78;68.81;94823.13;5070478;28;20483;-56
2023/06/02 01:13:12;;;;;;;8.17;6.67;;;17.40;99.90;;;17.74;68.29;94826.16;5068780;28;20499;-64
2023/06/02 01:15:40;;;;;;;21.53;7.10;;;17.40;99.90;;;17.74;68.67;94830.66;5068472;28;20531;-64
2023/06/02 01:18:09;;;;;;;14.40;6.83;;;17.40;99.90;;;17.73;68.55;94829.81;5073939;28;20519;-55
2023/06/02 01:20:44;;;;;;;9.47;7.00;;;17.40;99.90;;;17.72;68.53;94822.03;5068629;28;20482;-55
2023/06/02 01:23:16;;;;;;;13.50;6.70;;;17.40;99.90;;;17.72;68.92;94819.38;5076453;28;22391;-66
2023/06/02 01:25:46;;;;;;;9.87;6.80;;;17.40;99.90;;;17.73;69.10;94823.69;5068929;28;20557;-56
2023/06/02 01:28:15;;;;;;;7.40;6.60;;;17.30;99.90;;;17.73;69.07;94821.03;5072019;28;20533;-64
2023/06/02 01:30:43;;;;;;;12.00;7.67;;;17.40;99.90;;;17.72;68.64;94817.56;5071830;28;20461;-56
2023/06/02 01:33:16;;;;;;;9.70;6.67;;;17.40;99.90;;;17.71;68.88;94820.41;5071576;28;20454;-54
2023/06/02 01:35:46;;;;;;;8.10;7.10;;;17.40;99.90;;;17.68;68.76;94810.94;5076078;28;20446;-65
2023/06/02 01:38:14;;;;;;;10.67;6.20;;;17.40;99.90;;;17.66;68.83;94820.94;5073516;28;20852;-55
2023/06/02 01:40:43;;;;;;;13.70;6.63;;;17.40;99.90;;;17.64;69.15;94819.47;5072504;28;20466;-55
2023/06/02 01:43:11;;;;;;;7.93;6.77;;;17.30;99.90;;;17.62;68.69;94818.84;5074346;28;20845;-64
2023/06/02 01:45:39;;;;;;;7.73;6.93;;;17.30;99.90;;;17.62;69.03;94818.84;5071756;28;20563;-63
2023/06/02 01:48:07;;;;;;;11.37;6.67;;;17.30;99.90;;;17.61;69.10;94815.34;5079513;28;20813;-52
2023/06/02 01:50:37;;;;;;;7.30;6.60;;;17.30;99.90;;;17.61;69.68;94820.66;5074996;28;20489;-55
2023/06/02 01:53:04;;;;;;;11.77;7.67;;;17.30;99.90;;;17.63;69.35;94817.81;5080912;28;20883;-66
2023/06/02 01:55:31;;;;;;;8.20;7.40;;;17.30;99.90;;;17.64;69.79;94814.16;5073318;28;20576;-56
2023/06/02 01:58:00;;;;;;;8.97;6.70;;;17.30;99.90;;;17.63;69.66;94812.50;5077924;28;20958;-66
2023/06/02 02:00:27;;;;;;;8.70;7.30;;;17.30;99.90;;;17.64;69.84;94819.47;5079572;28;20465;-61
2023/06/02 02:02:54;;;;;;;7.50;6.73;;;17.30;99.90;;;17.64;70.01;94814.16;5073843;28;20457;-56
2023/06/02 02:05:22;;;;;;;8.60;7.37;;;17.30;99.90;;;17.64;69.72;94808.84;5075564;28;20486;-55
2023/06/02 02:07:50;;;;;;;10.57;7.37;;;17.30;99.90;;;17.62;70.20;94811.69;5075517;28;21028;-55
2023/06/02 02:10:18;;;;;;;9.70;6.93;;;17.30;99.90;;;17.61;70.35;94818.00;5074933;28;20466;-55
2023/06/02 02:12:45;;;;;;;6.97;6.20;;;17.30;99.90;;;17.62;70.43;94816.19;5074802;28;20479;-53
2023/06/02 02:15:15;;;;;;;16.67;6.77;;;17.30;99.90;;;17.62;70.41;94808.22;5072441;28;20471;-65
2023/06/02 02:17:46;;;;;;;8.67;6.70;;;17.30;99.90;;;17.63;70.03;94807.19;5079338;28;20450;-54
2023/06/02 02:20:16;;;;;;;15.97;8.60;;;17.30;99.90;;;17.59;70.19;94806.72;5076630;28;20470;-63
2023/06/02 02:22:43;;;;;;;11.33;7.33;;;17.30;99.90;;;17.63;69.91;94815.16;5082025;28;20537;-55
2023/06/02 02:25:10;;;;;;;17.50;7.67;;;17.30;99.90;;;17.58;70.35;94801.59;5072739;28;20494;-54
2023/06/02 02:27:38;;;;;;;8.20;7.07;;;17.30;99.90;;;17.59;70.46;94812.06;5076504;28;20554;-65
2023/06/02 02:30:07;;;;;;;15.03;7.70;;;17.30;99.90;;;17.59;69.95;94817.38;5071851;28;20486;-63
2023/06/02 02:32:38;;;;;;;8.93;6.40;;;17.30;99.90;;;17.58;70.49;94809.56;5076990;28;20508;-55
2023/06/02 02:35:06;;;;;;;13.50;7.03;;;17.30;99.90;;;17.58;70.44;94810.38;5068539;28;20471;-65
2023/06/02 02:37:34;;;;;;;11.10;8.13;;;17.30;99.90;;;17.58;70.81;94809.56;5076320;28;20565;-54
2023/06/02 02:40:01;;;;;;;9.20;8.30;;;17.30;99.90;;;17.58;70.53;94814.88;5074123;28;20486;-64
2023/06/02 02:42:28;;;;;;;15.60;7.20;;;17.30;99.90;;;17.59;71.05;94813.91;5075125;28;20446;-55
2023/06/02 02:44:55;;;;;;;15.33;7.93;;;17.30;99.90;;;17.59;71.18;94813.91;5075655;28;20490;-55
2023/06/02 02:47:22;;;;;;;16.57;6.63;;;17.30;99.90;;;17.58;70.69;94810.38;5073215;28;20974;-65
2023/06/02 02:49:51;;;;;;;12.07;7.50;;;17.30;99.90;;;17.57;70.78;94803.44;5079489;28;20475;-66
2023/06/02 02:52:18;;;;;;;11.97;8.70;;;17.30;99.90;;;17.56;70.73;94804.44;5075507;28;20459;-66
2023/06/02 02:54:45;;;;;;;14.00;8.20;;;17.20;99.90;;;17.58;70.67;94809.56;5079347;28;20618;-64
2023/06/02 02:57:13;;;;;;;10.20;5.80;;;17.30;99.90;;;17.58;70.75;94804.25;5082250;28;20894;-64
2023/06/02 02:59:40;;;;;;;8.00;7.10;;;17.20;99.90;;;17.56;70.66;94802.59;5081330;28;20935;-55
2023/06/02 03:02:08;;;;;;;10.17;7.30;;;17.30;99.90;;;17.56;71.21;94813.22;5078969;28;20468;-65
2023/06/02 03:04:36;;;;;;;12.10;6.60;;;17.30;99.90;;;17.56;70.54;94804.44;5079290;28;20526;-66
2023/06/02 03:07:05;;;;;;;11.60;7.77;;;17.20;99.90;;;17.56;70.46;94812.41;5075172;28;20482;-63
2023/06/02 03:09:32;;;;;;;12.67;7.90;;;17.20;99.90;;;17.56;70.59;94809.75;5082117;28;20454;-53
2023/06/02 03:12:00;;;;;;;15.47;7.23;;;17.20;99.90;;;17.54;70.70;94811.78;5079368;28;20446;-55
2023/06/02 03:14:28;;;;;;;17.23;7.30;;;17.20;99.90;;;17.52;70.74;94809.31;5074289;28;20502;-55
2023/06/02 03:16:56;;;;;;;11.17;7.73;;;17.20;99.90;;;17.51;70.53;94805.00;5075277;28;20818;-54
2023/06/02 03:19:26;;;;;;;13.03;6.67;;;17.20;99.90;;;17.51;70.49;94807.66;5070000;28;20563;-64
2023/06/02 03:21:55;;;;;;;14.10;6.97;;;17.20;99.90;;;17.52;70.86;94805.81;5071521;28;20457;-64
2023/06/02 03:24:24;;;;;;;10.73;8.83;;;17.20;99.90;;;17.52;70.72;94811.97;5071124;28;20517;-55
2023/06/02 03:26:55;;;;;;;11.03;7.23;;;17.20;99.90;;;17.51;70.98;94807.66;5076173;28;20534;-63
2023/06/02 03:29:22;;;;;;;19.33;6.83;;;17.20;99.90;;;17.52;70.97;94809.31;5073228;28;20651;-63
2023/06/02 03:31:51;;;;;;;7.37;6.63;;;17.20;99.90;;;17.53;70.53;94808.28;5072914;28;20467;-56
2023/06/02 03:34:18;;;;;;;10.27;7.10;;;17.20;99.90;;;17.54;70.76;94812.59;5071321;28;20534;-65
2023/06/02 03:36:46;;;;;;;13.53;7.07;;;17.20;99.90;;;17.55;70.25;94816.91;5076899;28;20849;-64
2023/06/02 03:39:13;;;;;;;19.67;6.80;;;17.20;99.90;;;17.56;70.44;94810.56;5072182;28;20475;-54
2023/06/02 03:41:42;;;;;;;16.67;6.73;;;17.30;99.90;;;17.57;70.59;94814.06;5073443;28;20462;-64
2023/06/02 03:44:09;;;;;;;21.03;7.30;;;17.30;99.90;;;17.57;70.82;94803.44;5070025;28;20483;-64
2023/06/02 03:46:36;;;;;;;7.90;7.10;;;17.30;99.90;;;17.60;70.84;94802.22;5073688;28;20459;-64
2023/06/02 03:49:04;;;;;;;75.43;10.20;;;17.30;99.90;;;17.62;70.75;94800.22;5066095;28;20474;-64
2023/06/02 03:51:31;;;;;;;34.90;8.57;;;17.30;99.90;;;17.66;70.28;94806.81;5074200;28;21058;-63
2023/06/02 03:53:58;;;;;;;14.43;8.77;;;17.30;99.90;;;17.69;70.14;94812.59;5067354;28;20487;-66
2023/06/02 03:56:26;;;;;;;11.63;7.77;;;17.30;99.90;;;17.73;70.25;94807.72;5079480;28;20874;-65
2023/06/02 03:58:54;;;;;;;11.00;7.50;;;17.40;99.90;;;17.78;69.95;94807.16;5072344;28;20484;-56
2023/06/02 04:01:23;;;;;;;14.47;8.47;;;17.40;99.90;;;17.81;70.32;94799.63;5067344;28;20451;-54
2023/06/02 04:03:50;;;;;;;15.67;7.57;;;17.50;99.90;;;17.86;70.09;94794.59;5072074;28;20474;-54
2023/06/02 04:06:17;;;;;;;11.53;7.63;;;17.50;99.90;;;17.94;69.98;94798.16;5075693;28;20573;-54
2023/06/02 04:08:45;;;;;;;13.07;7.80;;;17.60;99.90;;;18.01;69.98;94797.22;5067594;28;20490;-64
2023/06/02 04:11:12;;;;;;;15.30;7.00;;;17.70;99.90;;;18.07;69.88;94804.47;5072006;28;20489;-54
2023/06/02 04:13:40;;;;;;;18.00;8.30;;;17.70;99.90;;;18.12;69.38;94801.25;5073639;28;20475;-64
2023/06/02 04:16:08;;;;;;;12.70;8.70;;;17.80;99.90;;;18.16;69.25;94796.38;5070582;28;20839;-64
2023/06/02 04:18:38;;;;;;;9.70;7.20;;;17.80;99.90;;;18.19;69.48;94802.16;5070013;28;20485;-64
2023/06/02 04:21:06;;;;;;;12.07;8.23;;;17.90;99.90;;;18.22;69.37;94801.78;5070919;28;20494;-64
2023/06/02 04:23:33;;;;;;;16.33;9.93;;;17.90;99.90;;;18.26;69.18;94791.56;5073202;28;20474;-64
2023/06/02 04:26:00;;;;;;;21.53;9.53;;;17.90;99.90;;;18.28;68.91;94801.03;5074219;28;21120;-55
2023/06/02 04:28:27;;;;;;;11.57;8.80;;;17.90;99.90;;;18.31;69.25;94804.31;5068188;28;20459;-55
2023/06/02 04:30:55;;;;;;;17.43;8.93;;;18.00;99.90;;;18.33;69.33;94796.97;5072807;28;20974;-65
2023/06/02 04:33:24;;;;;;;18.90;8.30;;;18.00;99.90;;;18.36;69.25;94791.28;5068941;28;20497;-65
2023/06/02 04:35:51;;;;;;;11.67;8.20;;;18.00;99.90;;;18.35;69.18;94797.59;5070319;28;20528;-54
2023/06/02 04:38:18;;;;;;;16.40;8.87;;;18.00;99.90;;;18.34;68.67;94790.63;5073731;28;20996;-54
2023/06/02 04:40:46;;;;;;;11.20;8.50;;;18.00;99.90;;;18.33;69.20;94788.97;5070852;28;20466;-56
2023/06/02 04:43:13;;;;;;;13.30;8.13;;;18.00;99.90;;;18.35;69.13;94793.09;5072179;28;20454;-54
2023/06/02 04:45:43;;;;;;;11.80;7.87;;;18.00;99.90;;;18.38;69.18;94800.69;5069763;28;20490;-55
2023/06/02 04:48:11;;;;;;;13.70;7.20;;;18.00;99.90;;;18.41;68.67;94797.66;5071712;28;20446;-65
2023/06/02 04:50:40;;;;;;;16.43;8.47;;;18.10;99.90;;;18.44;68.55;94804.44;5069723;28;20447;-56
2023/06/02 04:53:10;;;;;;;14.40;8.10;;;18.10;99.90;;;18.47;68.94;94798.75;5073394;28;20458;-56
2023/06/02 04:55:38;;;;;;;14.17;8.53;;;18.10;99.90;;;18.51;68.66;94799.19;5066951;28;20469;-66
2023/06/02 04:58:05;;;;;;;12.03;8.60;;;18.10;99.90;;;18.55;68.31;94798.59;5073331;28;20513;-56
2023/06/02 05:00:34;;;;;;;14.07;9.70;;;18.20;99.90;;;18.59;68.57;94802.53;5065147;28;21074;-67
2023/06/02 05:03:01;;;;;;;10.27;8.60;;;18.20;99.90;;;18.64;68.47;94799.31;5069307;28;20456;-65
2023/06/02 05:05:28;;;;;;;13.00;8.90;;;18.30;99.90;;;18.69;68.00;94809.38;5071128;28;20498;-66
2023/06/02 05:07:57;;;;;;;14.93;8.97;;;18.30;99.90;;;18.72;68.24;94811.66;5073504;28;20966;-65
2023/06/02 05:10:25;;;;;;;14.33;9.27;;;18.40;99.90;;;18.80;68.08;94822.19;5072806;28;20474;-55
2023/06/02 05:12:53;;;;;;;15.53;10.17;;;18.40;99.90;;;18.88;68.07;94822.06;5069396;28;20447;-56
2023/06/02 05:15:20;;;;;;;17.50;9.33;;;18.50;99.90;;;19.02;67.95;94823.00;5080048;28;20474;-66
2023/06/02 05:17:48;;;;;;;11.23;8.83;;;18.60;99.90;;;19.16;67.68;94813.25;5079993;28;20456;-56
2023/06/02 05:20:15;;;;;;;13.00;9.67;;;18.70;99.90;;;19.30;67.06;94823.03;5074462;28;20824;-65
2023/06/02 05:22:42;;;;;;;14.77;9.53;;;18.90;99.90;;;19.42;66.63;94817.94;5083152;28;20886;-55
2023/06/02 05:25:11;;;;;;;19.60;9.57;;;19.00;99.90;;;19.49;66.66;94824.16;5074852;28;20498;-56
2023/06/02 05:27:38;;;;;;;11.70;8.73;;;19.10;99.90;;;19.56;66.26;94818.84;5078010;28;20499;-65
2023/06/02 05:30:07;;;;;;;17.57;9.97;;;19.20;99.90;;;19.62;66.32;94814.59;5075272;28;20994;-65
2023/06/02 05:32:35;;;;;;;23.33;9.30;;;19.20;99.90;;;19.74;66.28;94815.66;5073214;28;20451;-57
2023/06/02 05:35:02;;;;;;;19.87;9.90;;;19.30;99.90;;;19.88;65.75;94819.25;5072182;28;20478;-55
2023/06/02 05:37:29;;;;;;;13.50;9.70;;;19.40;99.90;;;20.08;65.39;94818.50;5074357;28;20511;-52
2023/06/02 05:39:56;;;;;;;10.53;8.90;;;19.60;99.90;;;20.27;65.01;94828.44;5074974;28;20489;-63
2023/06/02 05:42:25;;;;;;;14.97;9.60;;;19.80;99.90;;;20.42;64.51;94821.06;5074345;28;20450;-57
2023/06/02 05:44:53;;;;;;;21.33;9.70;;;19.90;99.90;;;20.58;64.37;94824.38;5074149;28;20846;-55
2023/06/02 05:47:20;;;;;;;13.50;9.33;;;20.10;99.90;;;20.73;63.75;94819.72;5074710;28;20531;-56
2023/06/02 05:49:47;;;;;;;13.30;9.87;;;20.30;99.90;;;20.83;63.61;94823.84;5080333;28;21031;-65
2023/06/02 05:52:15;;;;;;;14.13;9.70;;;20.40;99.90;;;20.87;63.20;94828.56;5073234;28;20967;-55
2023/06/02 05:54:42;;;;;;;25.83;10.93;;;20.40;99.90;;;20.91;63.28;94827.13;5075837;28;20565;-53
2023/06/02 05:57:09;;;;;;;15.70;10.83;;;20.50;99.90;;;20.96;62.95;94821.19;5072174;28;20447;-64
2023/06/02 05:59:39;;;;;;;21.03;10.73;;;20.50;99.90;;;20.98;62.79;94826.31;5070868;28;20907;-65
2023/06/02 06:02:07;;;;;;;14.17;9.17;;;20.60;99.90;;;21.02;62.73;94823.03;5072172;28;20443;-54
2023/06/02 06:04:34;;;;;;;20.70;9.93;;;20.60;99.90;;;21.06;62.49;94821.56;5073907;28;20479;-66
2023/06/02 06:07:02;;;;;;;19.10;10.67;;;20.60;99.90;;;21.10;62.43;94813.94;5077239;28;20485;-56
2023/06/02 06:09:29;;;;;;;25.13;9.60;;;20.70;99.90;;;21.18;61.80;94818.25;5071468;28;20850;-64
2023/06/02 06:11:56;;;;;;;16.80;10.70;;;20.80;99.90;;;21.31;62.04;94823.59;5070640;28;20455;-64
2023/06/02 06:14:24;;;;;;;18.83;9.27;;;20.90;99.90;;;21.53;61.82;94831.44;5073949;28;20475;-66
2023/06/02 06:16:52;;;;;;;19.17;9.77;;;21.00;99.90;;;21.72;61.22;94821.69;5076123;28;20496;-65
2023/06/02 06:19:20;;;;;;;31.67;11.60;;;21.20;99.90;;;21.82;60.77;94827.44;5073093;28;21002;-67
2023/06/02 06:21:47;;;;;;;12.10;9.80;;;21.30;99.90;;;21.89;60.06;94828.25;5078699;28;20594;-58
2023/06/02 06:24:14;;;;;;;14.20;9.73;;;21.40;99.90;;;21.97;60.25;94814.63;5074401;28;20892;-60
2023/06/02 06:26:42;;;;;;;18.07;9.07;;;21.50;99.90;;;22.08;60.47;94826.53;5070626;28;20483;-66
2023/06/02 06:29:09;;;;;;;14.77;9.10;;;21.60;99.90;;;22.18;59.97;94826.91;5073958;28;20497;-60
2023/06/02 06:31:36;;;;;;;18.20;9.40;;;21.70;99.90;;;22.29;60.19;94821.91;5072114;28;20447;-56
2023/06/02 06:34:05;;;;;;;15.10;9.70;;;21.80;99.90;;;22.36;59.64;94823.53;5075975;28;20962;-54
2023/06/02 06:36:33;;;;;;;14.03;9.23;;;21.90;99.90;;;22.42;59.23;94821.03;5072930;28;20458;-56
2023/06/02 06:39:01;;;;;;;12.77;10.77;;;21.90;99.90;;;22.52;58.78;94822.19;5075645;28;20466;-54
2023/06/02 06:41:28;;;;;;;17.50;11.00;;;22.00;99.90;;;22.64;59.07;94808.13;5070864;28;20458;-65
2023/06/02 06:43:55;;;;;;;21.27;10.40;;;22.10;99.90;;;22.89;59.19;94818.88;5076923;28;20536;-66
2023/06/02 06:46:22;;;;;;;18.40;9.47;;;22.30;99.90;;;23.20;57.69;94822.59;5071073;28;20566;-66
2023/06/02 06:48:50;;;;;;;17.80;9.03;;;22.60;99.80;;;23.41;57.00;94821.38;5077558;28;20490;-65
2023/06/02 06:51:19;;;;;;;23.00;10.03;;;22.80;99.40;;;23.57;57.05;94818.09;5075992;28;20451;-55
2023/06/02 06:53:46;;;;;;;17.70;9.00;;;23.00;99.00;;;23.72;55.86;94822.28;5075580;28;20478;-57
2023/06/02 06:56:14;;;;;;;18.20;10.43;;;23.20;98.10;;;23.82;55.75;94814.53;5074083;28;20446;-55
2023/06/02 06:58:41;;;;;;;15.30;9.40;;;23.30;98.20;;;24.00;55.69;94824.50;5072241;28;20474;-56
2023/06/02 07:01:08;;;;;;;16.50;9.60;;;23.50;98.30;;;24.20;55.75;94815.34;5071926;28;20447;-67
2023/06/02 07:03:36;;;;;;;14.07;10.47;;;23.60;97.70;;;24.39;55.09;94819.66;5074409;28;20475;-54
2023/06/02 07:06:03;;;;;;;19.27;10.20;;;23.80;97.50;;;24.66;54.11;94811.25;5073910;28;20904;-55
2023/06/02 07:08:32;;;;;;;16.30;9.53;;;24.00;96.90;;;25.01;53.86;94823.97;5073113;28;20474;-57
2023/06/02 07:10:59;;;;;;;15.10;9.57;;;24.40;96.60;;;25.33;53.07;94821.81;5074925;28;20450;-66
2023/06/02 07:13:27;;;;;;;19.73;8.77;;;24.70;96.10;;;25.56;52.64;94825.56;5068502;28;20447;-55
2023/06/02 07:15:54;;;;;;;21.57;9.83;;;24.90;95.40;;;25.75;52.52;94821.69;5074987;28;20530;-65
2023/06/02 07:18:21;;;;;;;19.30;9.80;;;25.20;95.10;;;25.96;51.66;94827.50;5072561;28;20875;-67
2023/06/02 07:20:49;;;;;;;15.53;10.23;;;25.40;94.30;;;26.13;50.94;94819.53;5073811;28;20869;-65
2023/06/02 07:23:16;;;;;;;24.13;9.20;;;25.50;93.60;;;26.20;50.86;94822.13;5076494;28;20816;-66
2023/06/02 07:25:45;;;;;;;19.67;9.73;;;25.60;93.40;;;26.29;50.86;94826.06;5075414;28;20486;-66
2023/06/02 07:28:12;;;;;;;31.90;10.03;;;25.70;93.20;;;26.44;50.88;94814.75;5075163;28;20457;-66
2023/06/02 07:30:40;;;;;;;23.57;9.20;;;25.80;93.20;;;26.65;50.56;94818.66;5069678;28;20568;-67
2023/06/02 07:33:07;;;;;;;23.30;9.67;;;26.10;92.90;;;26.84;50.14;94825.50;5072034;28;21044;-65
2023/06/02 07:35:35;;;;;;;12.57;9.70;;;26.20;92.40;;;26.88;49.49;94831.25;5072666;28;20447;-66
2023/06/02 07:38:02;;;;;;;13.30;8.67;;;26.30;91.60;;;26.76;49.31;94827.78;5073172;28;20469;-55
2023/06/02 07:40:29;;;;;;;15.57;9.40;;;26.30;91.10;;;26.64;49.65;94834.00;5071703;28;20485;-67
2023/06/02 07:42:58;;;;;;;11.90;9.00;;;26.10;91.00;;;26.51;49.88;94834.31;5075247;28;20488;-65
2023/06/02 07:45:25;;;;;;;17.80;8.80;;;26.10;91.20;;;26.39;50.14;94837.03;5074198;28;21042;-66
2023/06/02 07:47:52;;;;;;;23.23;8.00;;;25.90;91.20;;;26.34;49.99;94830.75;5075188;28;20496;-65
2023/06/02 07:50:20;;;;;;;28.17;9.07;;;25.90;91.00;;;26.26;50.00;94834.66;5076041;28;20483;-65
2023/06/02 07:52:47;;;;;;;32.63;9.57;;;25.80;91.00;;;26.19;50.18;94832.06;5073093;28;20534;-66
2023/06/02 07:55:14;;;;;;;20.60;8.23;;;25.80;90.90;;;26.15;49.32;94838.16;5075802;28;20477;-58
2023/06/02 07:57:42;;;;;;;13.03;9.30;;;25.70;90.20;;;26.07;49.40;94831.28;5072422;28;20462;-54
2023/06/02 08:00:15;;;;;;;11.60;8.20;;;25.60;90.30;;;26.00;49.55;94834.09;5077872;28;20989;-56
2023/06/02 08:02:43;;;;;;;14.63;8.53;;;25.60;90.50;;;25.94;50.15;94821.53;5069962;28;20837;-55
2023/06/02 08:05:10;;;;;;;13.83;8.40;;;25.50;90.50;;;25.92;49.43;94826.38;5072279;28;20485;-53
2023/06/02 08:07:38;;;;;;;8.10;7.03;;;25.50;90.20;;;25.89;49.49;94822.25;5072822;28;20918;-54
2023/06/02 08:10:07;;;;;;;11.50;7.77;;;25.40;90.00;;;25.87;49.16;94831.63;5071029;28;20469;-65
2023/06/02 08:12:35;;;;;;;12.67;7.87;;;25.40;89.30;;;25.82;49.24;94820.75;5073806;28;20449;-53
2023/06/02 08:15:02;;;;;;;23.57;8.00;;;25.40;89.00;;;25.76;48.79;94828.72;5073296;28;20564;-66
2023/06/02 08:17:31;;;;;;;19.93;7.57;;;25.30;88.50;;;25.76;49.17;94820.66;5072549;28;20511;-65
2023/06/02 08:19:58;;;;;;;12.97;7.63;;;25.30;88.70;;;25.80;48.72;94817.47;5074252;28;20536;-65
2023/06/02 08:22:27;;;;;;;9.20;6.53;;;25.30;87.70;;;25.75;48.02;94808.22;5073597;28;20503;-65
2023/06/02 08:24:54;;;;;;;12.13;7.73;;;25.30;86.20;;;25.77;48.00;94813.38;5076667;28;20985;-65
2023/06/02 08:27:21;;;;;;;12.53;7.53;;;25.30;85.70;;;25.91;47.90;94803.97;5071039;28;20493;-65
2023/06/02 08:29:49;;;;;;;17.47;6.90;;;25.40;86.10;;;26.10;47.59;94801.13;5076073;28;20488;-61
2023/06/02 08:32:17;;;;;;;7.80;6.47;;;25.60;85.60;;;26.31;47.54;94805.06;5072449;28;20947;-66
2023/06/02 08:34:47;;;;;;;14.43;6.43;;;25.70;85.60;;;26.50;47.05;94800.28;5071149;28;20906;-53
2023/06/02 08:37:16;;;;;;;9.50;6.60;;;25.90;84.50;;;26.65;46.54;94799.78;5075348;28;20462;-65
2023/06/02 08:39:43;;;;;;;11.30;5.53;;;26.10;83.80;;;26.80;45.78;94785.75;5071719;28;20579;-56
2023/06/02 08:42:12;;;;;;;17.87;7.27;;;26.20;81.40;;;26.92;45.27;94785.69;5072144;28;20455;-56
2023/06/02 08:44:40;;;;;;;7.40;5.90;;;26.40;80.00;;;26.94;44.99;94770.06;5073136;28;20470;-56
2023/06/02 08:47:10;;;;;;;18.77;6.73;;;26.50;79.70;;;27.13;44.79;94782.25;5071800;28;21083;-65
2023/06/02 08:49:37;;;;;;;16.80;6.20;;;26.60;79.80;;;27.46;45.00;94774.41;5076112;28;20465;-65
2023/06/02 08:52:10;;;;;;;12.53;6.03;;;26.80;80.00;;;27.86;44.05;94773.31;5071601;28;20449;-55
2023/06/02 08:54:38;;;;;;;15.57;7.63;;;27.20;79.00;;;28.10;43.86;94779.31;5072099;28;20477;-54
2023/06/02 08:57:07;;;;;;;16.07;7.20;;;27.50;77.00;;;28.21;43.52;94770.28;5072043;28;20469;-65
2023/06/02 08:59:35;;;;;;;12.80;6.17;;;27.70;75.40;;;28.29;42.00;94762.75;5066736;28;20527;-66
2023/06/02 09:02:02;;;;;;;8.83;4.53;;;27.70;73.40;;;28.46;42.05;94760.81;5071375;28;20871;-65
2023/06/02 09:04:29;;;;;;;14.37;8.27;;;27.80;73.90;;;28.71;41.82;94756.75;5066184;28;20550;-64
2023/06/02 09:07:21;;;;;;;13.17;6.80;;;28.10;74.30;;;29.13;40.90;94758.72;5070324;28;20482;-56
2023/06/02 09:09:51;;;;;;;7.00;6.30;;;28.40;72.00;;;29.46;40.82;94735.91;5066918;28;20526;-64
2023/06/02 09:12:18;;;;;;;13.43;6.00;;;28.80;71.20;;;29.79;40.70;94743.94;5070530;28;20450;-55
2023/06/02 09:14:47;;;;;;;9.30;6.17;;;29.10;70.70;;;30.09;40.86;94740.59;5070650;28;20220;-61
2023/06/02 09:17:28;;;;;;;11.53;5.90;;;29.40;70.20;;;30.41;38.97;94741.53;5069477;28;20196;-66
2023/06/02 09:19:57;;;;;;;11.10;5.70;;;29.80;66.90;;;30.50;36.32;94740.72;5073288;28;20220;-56
2023/06/02 09:22:25;;;;;;;9.93;5.23;;;29.90;61.50;;;30.48;38.64;94739.38;5075705;28;20238;-65
2023/06/02 09:24:54;;;;;;;11.97;5.90;;;29.90;63.90;;;30.47;38.73;94743.16;5074862;28;20300;-65
2023/06/02 09:27:24;;;;;;;12.63;5.70;;;29.90;63.40;;;30.50;38.44;94737.19;5069914;28;20242;-65
2023/06/02 09:29:51;;;;;;;6.90;5.03;;;30.00;63.10;;;30.57;38.23;94733.13;5069235;28;20234;-65
2023/06/02 09:32:19;;;;;;;8.17;5.80;;;30.00;62.40;;;30.76;38.14;94724.47;5068136;28;20200;-55
2023/06/02 09:34:48;;;;;;;14.53;5.20;;;30.10;62.50;;;31.02;37.22;94727.22;5070338;28;20300;-56
2023/06/02 09:37:17;;;;;;;16.13;5.23;;;30.40;60.80;;;31.21;37.46;94722.06;5070467;28;20210;-55
2023/06/02 09:39:48;;;;;;;12.67;6.50;;;30.50;60.90;;;31.35;37.71;94725.03;5070407;28;20282;-56
2023/06/02 09:42:17;;;;;;;11.67;6.07;;;30.70;60.60;;;31.37;36.96;94715.50;5068810;28;20633;-65
2023/06/02 09:45:03;;;;;;;13.97;5.37;;;30.80;59.50;;;31.36;36.02;94713.06;5067957;28;20736;-57
2023/06/02 09:47:30;;;;;;;8.80;5.43;;;30.70;58.10;;;31.35;36.26;94709.50;5068069;28;20216;-56
2023/06/02 09:49:57;;;;;;;7.27;5.17;;;30.70;58.60;;;31.26;36.24;94711.16;5078884;28;20254;-66
2023/06/02 09:52:25;;;;;;;11.05;5.63;;;30.70;58.00;;;31.11;36.04;94712.00;5073823;28;20204;-53
2023/06/02 09:54:53;;;;;;;9.67;5.40;;;30.60;57.40;;;31.08;36.14;94710.66;5068118;28;20228;-65
2023/06/02 09:57:20;;;;;;;11.18;4.85;;;30.60;57.10;;;31.21;36.17;94711.19;5073185;28;20279;-67
2023/06/02 09:59:48;;;;;;;15.77;4.90;;;30.60;57.40;;;31.43;35.98;94703.53;5069042;28;20224;-56
2023/06/02 10:02:15;;;;;;;10.25;6.05;;;30.80;57.50;;;31.59;36.19;94701.63;5073480;28;20207;-54
2023/06/02 10:04:42;;;;;;;10.63;5.68;;;30.90;57.40;;;31.62;36.01;94705.66;5073149;28;20606;-53
2023/06/02 10:07:30;;;;;;;7.32;5.28;;;31.00;57.00;;;31.61;35.20;94695.91;5074812;28;20228;-65
2023/06/02 10:10:11;;;;;;;5.75;5.25;;;31.00;56.40;;;31.51;35.10;94688.56;5076356;28;20235;-66
2023/06/02 10:13:18;;;;;;;7.93;4.90;;;30.90;55.70;;;31.36;34.93;94689.41;5068620;28;20188;-55
2023/06/02 10:16:22;;;;;;;9.95;4.88;;;30.80;55.60;;;31.27;34.20;94686.44;5073221;28;20693;-65
2023/06/02 10:19:26;;;;;;;19.50;5.10;;;30.70;55.40;;;31.31;33.14;94683.16;5069152;28;20277;-66